Airfield :







YOU CAN JOIN US ON...

 
LOGIN :

Register | Disclaimer

   EN    FR    IT 

 









Legend :    VFR   Marginal VFR   IFR   Intensive IFR   Very Intensive IFR
Visi :
Ceiling :
>= 8 km
>= 3000ft
5 to 8 km
1000 to 3000 ft
1500m to 5 km
500 to 1000 ft
800 to 1500m
200 to 500 ft
< 800m
< 200 ft
Symbols :   Thunderstorms  Fog  Heavy snow  Heavy precipitations  Wind > 20 kt







- Airport Elevation : 241 ft
- IATA code : CEF


KCEF - Westover ARB/Metropolitan

CURRENT METAR :
  • 161356Z 35008KT 10SM FEW024 FEW065 BKN230 19/12 A3008 RMK AO2A SLP192 T01850116

EXPIRED METARs :
  • 161256Z 01005KT 10SM FEW030 FEW065 SCT230 17/13 A3008 RMK AO2A SLP192 T01680127
  • 161156Z 00000KT 10SM FEW024 SCT033 SCT230 14/14 A3008 RMK AO2A SLP191 T01440144 10144 20119 52011

TAF TAF KCEF
Valid from the 16 at 10:00 until the 17 at 16:00 UTC


161000Z 1610/1716 VRB06KT 9999 SCT050 BKN100 BKN250 QNH2997INS
BECMG 1618/1619 31009KT 9999 FEW050 SCT100 SCT250 QNH2994INS
BECMG 1700/1701 36006KT 9999 FEW250 510052 QNH2999INS
BECMG 1714/1715 01010G15KT 9999 FEW040 QNH3011INS TX24/1620Z TN08/1710Z
No reported NOTAMs for that airfield.



MET'MAP, your aeronautical weather chart ! - Copyright ORBIFLY December 2007 - Disclaimer

ORBIFLY MET'MAP TEAM :

Programming & Development : Alexandra Zaïnal
Concept & Development : Baudouin d'Aumeries
Co-Development & Prog : Marc-Olivier Méhu
Technical & hardware support : Manuel Goepfert

Contact : metmap@orbifly.com




SOURCES & CREDITS :

   NOAA